Time;durP1;ratioP1;P1;durP2;ratioP2;P2;SDS_P1;SDS_P2;PMS_P1;PMS_P2;Temp;Humidity;BMP_temperature;BMP_pressure;BME280_temperature;BME280_humidity;BME280_pressure;Samples;Min_cycle;Max_cycle;Signal;HPM_P1;HPM_P2
2022/06/19 00:00:23;;;;;;;4.75;2.38;;;;;;;16.75;61.64;99053.53;5030269;28;20704;-40
2022/06/19 00:02:49;;;;;;;6.57;2.90;;;;;;;16.76;61.65;99057.84;5034120;28;20091;-40
2022/06/19 00:05:15;;;;;;;4.82;2.47;;;;;;;16.75;61.81;99051.75;5030469;28;20041;-39
2022/06/19 00:07:41;;;;;;;4.63;2.28;;;;;;;16.68;61.79;99045.25;5030703;28;20069;-42
2022/06/19 00:10:08;;;;;;;3.28;2.28;;;;;;;16.71;61.85;99044.19;5030624;28;20037;-40
2022/06/19 00:12:34;;;;;;;4.18;2.10;;;;;;;16.70;61.98;99043.34;5029185;28;20470;-40
2022/06/19 00:15:00;;;;;;;2.45;1.73;;;;;;;16.70;61.92;99038.09;5037169;28;20084;-41
2022/06/19 00:17:25;;;;;;;3.13;1.90;;;;;;;16.69;62.11;99041.69;5040403;28;20128;-39
2022/06/19 00:19:52;;;;;;;2.65;1.73;;;;;;;16.69;62.01;99043.47;5030231;28;20463;-40
2022/06/19 00:22:18;;;;;;;2.97;1.80;;;;;;;16.68;62.04;99047.88;5030136;28;20099;-39
2022/06/19 00:24:45;;;;;;;3.53;1.98;;;;;;;16.68;62.31;99041.78;5043827;28;20036;-41
2022/06/19 00:27:11;;;;;;;4.32;1.90;;;;;;;16.55;62.13;99005.03;5029346;28;20059;-40
2022/06/19 00:29:37;;;;;;;4.15;2.10;;;;;;;16.59;61.90;99017.00;5028902;28;20053;-41
2022/06/19 00:32:06;;;;;;;2.80;2.17;;;;;;;16.72;61.86;99043.25;5044745;28;20059;-40
2022/06/19 00:34:32;;;;;;;6.15;2.00;;;;;;;16.71;61.57;99033.69;5061010;28;20048;-40
2022/06/19 00:37:00;;;;;;;3.00;2.00;;;;;;;16.62;61.81;99024.69;5029191;28;20045;-39
2022/06/19 00:39:27;;;;;;;3.75;1.98;;;;;;;16.73;61.81;99047.56;5044738;28;20497;-40
2022/06/19 00:41:53;;;;;;;5.78;2.10;;;;;;;16.73;61.62;99044.94;5030341;28;20037;-39
2022/06/19 00:44:18;;;;;;;5.60;1.98;;;;;;;16.74;61.66;99046.63;5029797;28;20056;-40
2022/06/19 00:46:53;;;;;;;3.08;1.80;;;;;;;16.73;61.54;99042.31;5030037;28;20063;-40
2022/06/19 00:49:24;;;;;;;2.70;1.80;;;;;;;16.73;61.42;99042.31;5029895;28;20489;-40
2022/06/19 00:52:19;;;;;;;2.58;1.60;;;;;;;16.72;61.15;99035.38;5029663;28;20136;-40
2022/06/19 00:55:03;;;;;;;4.88;1.80;;;;;;;16.73;61.37;99034.44;5040915;28;20052;-40
2022/06/19 00:57:30;;;;;;;3.33;1.80;;;;;;;16.74;61.30;99031.72;5032271;28;20040;-40
2022/06/19 01:00:23;;;;;;;2.50;1.73;;;;;;;16.74;60.73;99029.09;5018815;28;20053;-39
2022/06/19 01:02:50;;;;;;;3.30;1.70;;;;;;;16.76;60.48;99014.06;5025929;28;20429;-39
2022/06/19 01:05:16;;;;;;;5.55;1.70;;;;;;;16.73;60.28;99009.03;5034291;28;20042;-41
2022/06/19 01:07:43;;;;;;;2.20;1.58;;;;;;;16.78;59.55;99016.59;5032824;28;20045;-40
2022/06/19 01:10:12;;;;;;;3.75;1.55;;;;;;;16.80;59.60;99015.50;5016185;28;20056;-40
2022/06/19 01:12:41;;;;;;;5.32;1.45;;;;;;;16.83;59.29;99009.22;5035468;28;20042;-40
2022/06/19 01:15:10;;;;;;;4.40;1.73;;;;;;;16.83;59.33;99009.22;5052542;28;20419;-40
2022/06/19 01:17:36;;;;;;;1.85;1.40;;;;;;;16.83;59.33;99014.47;5051614;28;20131;-40
2022/06/19 01:20:09;;;;;;;2.40;1.60;;;;;;;16.84;59.30;99005.66;5053559;28;20128;-39
2022/06/19 01:23:10;;;;;;;2.90;1.40;;;;;;;16.84;59.36;99008.28;5042791;28;20041;-41
2022/06/19 01:25:38;;;;;;;4.10;1.48;;;;;;;16.85;59.29;99008.16;5022689;28;20048;-41
2022/06/19 01:30:53;;;;;;;2.83;1.80;;;;;;;16.93;59.09;99003.22;5033480;28;20041;-40
2022/06/19 01:33:27;;;;;;;1.90;1.50;;;;;;;16.96;59.24;99011.81;5048527;28;20044;-40
2022/06/19 01:35:53;;;;;;;4.78;1.58;;;;;;;16.99;59.27;98999.31;5051781;28;20144;-39
2022/06/19 01:38:20;;;;;;;5.35;1.80;;;;;;;17.04;58.94;99014.72;5034715;28;20052;-39
2022/06/19 01:40:51;;;;;;;2.17;1.58;;;;;;;17.00;58.85;98989.66;5032203;28;20076;-42
2022/06/19 01:43:18;;;;;;;2.00;1.58;;;;;;;16.94;58.71;98983.03;5063247;28;20532;-40
2022/06/19 01:45:49;;;;;;;2.30;1.55;;;;;;;17.08;59.17;98996.00;5062895;28;20042;-40
2022/06/19 01:48:15;;;;;;;5.15;1.90;;;;;;;17.09;58.72;98997.69;5029875;28;20041;-41
2022/06/19 01:50:42;;;;;;;2.30;1.67;;;;;;;17.10;58.90;98994.13;5030179;28;20509;-40
2022/06/19 01:53:17;;;;;;;2.08;1.35;;;;;;;17.11;58.78;98993.19;5030013;28;20041;-41
2022/06/19 01:55:43;;;;;;;4.55;2.00;;;;;;;17.13;59.07;98990.44;5063168;28;20129;-39
2022/06/19 01:58:10;;;;;;;2.20;1.63;;;;;;;17.12;58.97;98984.34;5063383;28;20124;-40
2022/06/19 02:00:39;;;;;;;3.33;1.65;;;;;;;17.15;59.02;98981.50;5064479;28;20532;-40
2022/06/19 02:03:09;;;;;;;2.05;1.45;;;;;;;17.18;58.78;98988.31;5030655;28;20496;-40
2022/06/19 02:05:37;;;;;;;2.35;1.80;;;;;;;17.12;58.72;98981.69;5032998;28;20045;-40
2022/06/19 02:08:03;;;;;;;2.72;1.42;;;;;;;17.22;58.67;98984.50;5015156;28;20088;-40
2022/06/19 02:10:30;;;;;;;2.50;1.58;;;;;;;17.26;58.71;98991.22;5031426;28;20041;-40
2022/06/19 02:12:57;;;;;;;2.92;1.60;;;;;;;17.28;58.45;98984.06;5039033;28;20030;-39
2022/06/19 02:15:45;;;;;;;5.68;1.83;;;;;;;17.33;58.52;98979.31;5018285;28;20045;-40
2022/06/19 02:18:19;;;;;;;4.20;1.60;;;;;;;17.24;58.28;98966.84;5041894;28;20045;-40
2022/06/19 02:20:45;;;;;;;2.05;1.70;;;;;;;17.36;58.40;98979.09;5031976;28;20033;-40
2022/06/19 02:23:11;;;;;;;4.25;1.85;;;;;;;17.36;58.31;98979.09;5031059;28;20049;-39
2022/06/19 02:25:40;;;;;;;2.60;1.75;;;;;;;17.38;58.13;98971.13;5032486;28;20085;-39
2022/06/19 02:28:08;;;;;;;4.03;1.67;;;;;;;17.38;58.32;98972.75;5048765;28;20110;-41
2022/06/19 02:30:33;;;;;;;5.32;1.50;;;;;;;17.39;58.06;98968.34;5065252;28;20567;-39
2022/06/19 02:32:59;;;;;;;2.25;1.63;;;;;;;17.25;58.21;98952.78;5036288;28;20049;-40
2022/06/19 02:35:26;;;;;;;1.95;1.50;;;;;;;17.39;58.19;98970.97;5052128;28;20037;-40
2022/06/19 02:37:55;;;;;;;2.13;1.50;;;;;;;17.26;58.04;98951.81;5052380;28;20033;-40
2022/06/19 02:40:26;;;;;;;4.15;1.20;;;;;;;17.45;57.76;98969.69;5043097;28;20048;-40
2022/06/19 02:42:52;;;;;;;6.43;1.70;;;;;;;17.39;58.17;98949.97;5041283;28;20045;-40
2022/06/19 02:45:22;;;;;;;2.10;1.40;;;;;;;17.58;57.90;98958.19;5014370;28;20125;-40
2022/06/19 02:47:49;;;;;;;1.80;1.50;;;;;;;17.63;57.69;98950.81;5035107;28;20123;-41
2022/06/19 02:50:18;;;;;;;2.10;1.40;;;;;;;17.63;57.51;98945.56;5046902;28;20045;-40
2022/06/19 02:52:44;;;;;;;5.10;1.27;;;;;;;17.55;57.88;98937.34;5030650;28;20103;-40
2022/06/19 02:55:10;;;;;;;3.35;1.40;;;;;;;17.57;58.04;98945.13;5030658;28;20402;-40
2022/06/19 02:57:37;;;;;;;5.55;1.50;;;;;;;17.53;57.93;98943.69;5063604;28;20567;-40
2022/06/19 03:00:05;;;;;;;2.85;1.60;;;;;;;17.57;57.67;98953.03;5031705;28;20053;-40
2022/06/19 03:02:31;;;;;;;2.72;1.67;;;;;;;17.67;57.64;98946.16;5044964;28;20185;-43
2022/06/19 03:05:03;;;;;;;2.83;1.73;;;;;;;17.74;57.17;98945.56;5014554;28;20041;-41
2022/06/19 03:07:29;;;;;;;1.73;1.52;;;;;;;17.60;57.22;98926.53;5047101;28;20049;-40
2022/06/19 03:09:56;;;;;;;5.57;1.60;;;;;;;17.83;57.05;98937.94;5032623;28;20070;-41
2022/06/19 03:12:21;;;;;;;1.88;1.30;;;;;;;17.91;57.09;98940.81;5036691;28;20132;-41
2022/06/19 03:14:48;;;;;;;1.52;1.25;;;;;;;17.83;56.79;98916.91;5031605;28;20131;-40
2022/06/19 03:17:15;;;;;;;1.90;1.30;;;;;;;17.98;56.20;98926.25;5030044;28;20099;-41
2022/06/19 03:19:41;;;;;;;1.80;1.20;;;;;;;18.00;56.48;98932.25;5045041;28;20040;-40
2022/06/19 03:22:07;;;;;;;3.78;1.55;;;;;;;18.01;56.64;98923.38;5037608;28;20543;-40
2022/06/19 03:24:33;;;;;;;1.95;1.10;;;;;;;18.01;56.15;98910.22;5031397;28;20152;-40
2022/06/19 03:26:59;;;;;;;4.47;1.50;;;;;;;18.10;56.21;98914.81;5030979;28;20045;-40
2022/06/19 03:29:25;;;;;;;2.45;1.58;;;;;;;18.10;55.75;98902.50;5031956;28;20049;-39
2022/06/19 03:31:51;;;;;;;2.33;1.50;;;;;;;18.17;55.80;98908.09;5031164;28;20068;-40
2022/06/19 03:34:16;;;;;;;1.50;1.23;;;;;;;18.28;55.94;98905.47;5040653;28;20060;-40
2022/06/19 03:36:42;;;;;;;2.03;1.35;;;;;;;18.40;55.67;98903.66;5050917;28;20044;-40
2022/06/19 03:39:08;;;;;;;3.13;1.88;;;;;;;18.45;54.99;98906.78;5050989;28;20513;-40
2022/06/19 03:41:34;;;;;;;1.58;1.48;;;;;;;18.45;55.05;98904.16;5043786;28;20103;-40
2022/06/19 03:43:59;;;;;;;2.95;1.10;;;;;;;18.41;55.15;98898.28;5029542;28;20044;-40
2022/06/19 03:46:25;;;;;;;1.70;1.27;;;;;;;18.37;54.77;98899.47;5030807;28;20057;-40
2022/06/19 03:48:51;;;;;;;2.20;1.20;;;;;;;18.27;55.14;98863.47;5033599;28;20041;-39
2022/06/19 03:51:18;;;;;;;2.70;1.33;;;;;;;18.45;54.80;98901.50;5044903;28;20037;-39
2022/06/19 03:53:45;;;;;;;1.25;1.02;;;;;;;18.48;54.80;98894.19;5029718;28;20103;-40
2022/06/19 03:56:16;;;;;;;4.68;1.30;;;;;;;18.50;55.01;98886.19;5013072;28;20053;-40
2022/06/19 03:58:48;;;;;;;3.10;1.30;;;;;;;18.50;54.73;98888.81;5029105;28;20095;-40
2022/06/19 04:01:16;;;;;;;2.90;1.13;;;;;;;18.47;54.74;98875.91;5012099;28;20065;-40
2022/06/19 04:03:43;;;;;;;4.75;1.45;;;;;;;18.59;54.30;98890.75;5034128;28;20067;-40
2022/06/19 04:06:10;;;;;;;4.60;1.27;;;;;;;18.53;54.39;98865.72;5050485;28;20045;-39
2022/06/19 04:08:37;;;;;;;1.98;1.38;;;;;;;18.73;54.16;98890.50;5045791;28;20095;-40
2022/06/19 04:11:04;;;;;;;3.40;1.40;;;;;;;18.75;53.96;98878.03;5029133;28;20501;-40
2022/06/19 04:13:34;;;;;;;2.03;1.05;;;;;;;18.80;53.91;98877.66;5030462;28;20037;-40
2022/06/19 04:16:04;;;;;;;3.70;1.20;;;;;;;18.84;53.98;98876.47;5030406;28;20123;-39
2022/06/19 04:18:31;;;;;;;1.50;1.30;;;;;;;18.94;53.51;98874.75;5029889;28;20040;-40
2022/06/19 04:20:58;;;;;;;3.97;1.27;;;;;;;19.01;52.98;98876.75;5032683;28;20064;-39
2022/06/19 04:23:24;;;;;;;1.58;1.48;;;;;;;19.08;53.23;98877.09;5045423;28;20104;-40
2022/06/19 04:25:52;;;;;;;3.45;1.50;;;;;;;19.19;53.03;98878.84;5036531;28;20041;-40
2022/06/19 04:28:19;;;;;;;2.65;1.60;;;;;;;19.24;52.56;98874.88;5047187;28;20136;-40
2022/06/19 04:30:48;;;;;;;1.60;1.50;;;;;;;19.20;52.77;98878.72;5013277;28;20033;-39
2022/06/19 04:33:15;;;;;;;1.25;1.15;;;;;;;19.20;52.80;98881.38;5027780;28;20051;-39
2022/06/19 04:35:41;;;;;;;3.10;1.40;;;;;;;19.19;53.07;98886.75;5046912;28;20044;-40
2022/06/19 04:38:07;;;;;;;2.63;1.48;;;;;;;19.13;53.21;98861.75;5043693;28;20037;-40
2022/06/19 04:40:36;;;;;;;2.80;1.60;;;;;;;19.34;53.09;98872.31;5029756;28;20056;-40
2022/06/19 04:43:03;;;;;;;1.90;1.40;;;;;;;19.42;52.98;98867.22;5028063;28;20052;-40
2022/06/19 04:45:31;;;;;;;2.60;1.55;;;;;;;19.53;53.02;98867.19;5030191;28;20076;-40
2022/06/19 04:47:56;;;;;;;2.53;1.40;;;;;;;19.51;52.78;98841.94;5029570;28;20120;-39
2022/06/19 04:50:22;;;;;;;2.58;1.40;;;;;;;19.65;52.63;98855.63;5029803;28;20566;-39
2022/06/19 04:52:48;;;;;;;3.53;1.75;;;;;;;19.50;52.99;98837.63;5032474;28;20052;-41
2022/06/19 04:55:15;;;;;;;1.67;1.58;;;;;;;19.58;53.07;98849.19;5035721;28;20049;-40
2022/06/19 04:57:40;;;;;;;2.25;1.40;;;;;;;19.51;53.50;98844.56;5028546;28;20041;-40
2022/06/19 05:00:08;;;;;;;3.40;1.67;;;;;;;19.52;53.78;98844.44;5029313;28;20057;-39
2022/06/19 05:02:34;;;;;;;2.03;1.33;;;;;;;19.73;53.46;98839.16;5039260;28;20063;-43
2022/06/19 05:05:01;;;;;;;2.85;1.67;;;;;;;19.96;53.20;98837.16;5047725;28;20041;-39
2022/06/19 05:07:28;;;;;;;1.83;1.30;;;;;;;20.13;52.34;98826.00;5037877;28;20131;-40
2022/06/19 05:09:53;;;;;;;2.55;1.73;;;;;;;20.25;52.62;98820.47;5028164;28;20137;-40
2022/06/19 05:12:19;;;;;;;1.60;1.30;;;;;;;20.40;52.59;98842.09;5028034;28;20049;-39
2022/06/19 05:14:45;;;;;;;2.15;1.30;;;;;;;20.39;52.22;98843.06;5029617;28;20041;-39
2022/06/19 05:17:11;;;;;;;2.45;1.30;;;;;;;20.48;51.84;98821.13;5024212;28;20042;-40
2022/06/19 05:19:40;;;;;;;1.90;1.30;;;;;;;20.65;51.36;98838.09;5028790;28;20044;-40
2022/06/19 05:22:06;;;;;;;3.85;1.80;;;;;;;20.61;51.82;98837.56;5028642;28;20075;-39
2022/06/19 05:24:32;;;;;;;5.80;1.60;;;;;;;20.62;51.92;98843.69;5029654;28;20398;-40
2022/06/19 05:26:58;;;;;;;2.13;1.50;;;;;;;20.59;52.24;98836.00;5029580;28;20173;-39
2022/06/19 05:29:24;;;;;;;4.03;1.70;;;;;;;20.69;51.90;98826.28;5029593;28;20150;-40
2022/06/19 05:31:51;;;;;;;2.78;1.60;;;;;;;20.74;51.66;98829.34;5033557;28;20039;-41
2022/06/19 05:34:18;;;;;;;4.00;1.50;;;;;;;20.85;51.85;98834.50;5035052;28;20036;-39
2022/06/19 05:36:44;;;;;;;1.73;1.60;;;;;;;20.93;51.87;98852.34;5044985;28;20044;-38
2022/06/19 05:39:10;;;;;;;3.75;1.40;;;;;;;20.92;51.67;98840.94;5032393;28;20095;-40
2022/06/19 05:41:38;;;;;;;2.30;1.48;;;;;;;20.84;51.79;98832.84;5029243;28;20061;-40
2022/06/19 05:44:05;;;;;;;2.20;1.50;;;;;;;20.81;51.85;98830.47;4994970;28;20034;-40
2022/06/19 05:46:31;;;;;;;3.70;1.52;;;;;;;20.85;52.02;98834.50;5033418;28;20481;-40
2022/06/19 05:48:57;;;;;;;1.30;1.20;;;;;;;20.89;52.30;98833.25;5033048;28;20128;-39
2022/06/19 05:51:24;;;;;;;3.55;1.92;;;;;;;20.83;52.30;98833.81;5033239;28;20428;-40
2022/06/19 05:53:55;;;;;;;3.10;1.58;;;;;;;20.91;52.54;98819.91;5046759;28;20415;-40
2022/06/19 05:56:21;;;;;;;3.50;1.60;;;;;;;21.06;52.07;98827.28;5038580;28;20045;-40
2022/06/19 05:58:47;;;;;;;4.00;1.55;;;;;;;21.29;52.02;98833.16;5035180;28;20137;-39
2022/06/19 06:01:14;;;;;;;5.18;1.50;;;;;;;21.41;51.63;98810.84;5034132;28;20091;-41
2022/06/19 06:03:43;;;;;;;2.97;1.40;;;;;;;21.40;51.29;98789.88;5028999;28;20124;-39
2022/06/19 06:06:13;;;;;;;;;;;;;;;21.44;51.58;98807.94;5033278;28;20042;-39
2022/06/19 06:08:39;;;;;;;2.40;1.50;;;;;;;21.42;51.88;98798.47;5031526;28;19924;-39
2022/06/19 06:11:05;;;;;;;3.05;1.60;;;;;;;21.46;51.56;98810.41;5022311;28;20064;-40
2022/06/19 06:13:33;;;;;;;3.08;1.40;;;;;;;21.76;50.95;98812.03;5024510;28;20037;-40
2022/06/19 06:15:59;;;;;;;2.00;1.20;;;;;;;21.84;49.75;98810.31;5031931;28;20087;-41
2022/06/19 06:18:26;;;;;;;2.72;1.25;;;;;;;21.70;50.00;98820.53;5048067;28;20033;-41
2022/06/19 06:20:55;;;;;;;3.42;1.30;;;;;;;21.77;50.13;98816.34;5020159;28;20540;-41
2022/06/19 06:23:22;;;;;;;2.90;1.50;;;;;;;21.94;49.76;98799.72;5029145;28;20055;-40
2022/06/19 06:25:48;;;;;;;2.75;1.48;;;;;;;22.13;49.69;98802.31;5035587;28;20041;-40
2022/06/19 06:28:14;;;;;;;2.60;1.55;;;;;;;22.17;49.25;98794.88;5028074;28;20591;-40
2022/06/19 06:30:40;;;;;;;5.07;1.30;;;;;;;21.94;48.91;98774.09;5028188;28;20041;-40
2022/06/19 06:33:06;;;;;;;2.45;1.25;;;;;;;21.96;48.69;98777.44;5031937;28;20091;-40
2022/06/19 06:35:32;;;;;;;2.20;1.20;;;;;;;22.01;48.94;98778.81;5030480;28;20049;-40
2022/06/19 06:37:59;;;;;;;4.10;1.35;;;;;;;22.01;48.79;98768.22;5025349;28;20041;-39
2022/06/19 06:40:25;;;;;;;3.00;1.40;;;;;;;22.06;48.47;98768.59;5028530;28;20318;-40
2022/06/19 06:42:51;;;;;;;1.95;1.40;;;;;;;21.94;48.99;98784.69;5028931;28;20041;-39
2022/06/19 06:45:17;;;;;;;2.85;1.30;;;;;;;21.98;49.23;98770.16;5042355;28;20049;-40
2022/06/19 06:47:43;;;;;;;1.85;1.38;;;;;;;21.95;49.27;98773.13;5039931;28;20041;-40
2022/06/19 06:50:09;;;;;;;1.85;1.30;;;;;;;22.48;48.60;98782.16;5025616;28;20041;-40
2022/06/19 06:52:34;;;;;;;1.52;1.35;;;;;;;22.59;48.01;98779.28;5030112;28;20549;-40
2022/06/19 06:55:00;;;;;;;1.83;1.20;;;;;;;22.72;47.40;98761.22;5059289;28;20143;-40
2022/06/19 06:57:28;;;;;;;2.17;1.30;;;;;;;22.71;47.63;98768.38;5014321;28;20041;-40
2022/06/19 06:59:54;;;;;;;3.28;1.88;;;;;;;22.43;48.48;98761.41;5024333;28;20061;-41
2022/06/19 07:02:20;;;;;;;2.13;1.55;;;;;;;22.11;49.23;98758.41;5029654;28;20405;-41
2022/06/19 07:04:45;;;;;;;3.00;1.55;;;;;;;21.96;49.74;98764.19;5027746;28;20042;-41
2022/06/19 07:07:11;;;;;;;2.00;1.40;;;;;;;22.15;48.84;98742.06;5033371;28;20064;-42
2022/06/19 07:09:37;;;;;;;5.35;1.55;;;;;;;22.38;48.85;98740.69;5025144;28;20080;-40
2022/06/19 07:12:03;;;;;;;2.33;1.38;;;;;;;22.56;48.56;98745.16;5017434;28;20518;-40
2022/06/19 07:14:28;;;;;;;4.00;1.92;;;;;;;22.39;49.30;98737.06;5030003;28;20075;-40
2022/06/19 07:16:55;;;;;;;2.35;1.50;;;;;;;22.22;49.63;98742.31;5028885;28;20046;-42
2022/06/19 07:19:20;;;;;;;5.30;1.45;;;;;;;22.12;49.72;98747.69;5028170;28;20041;-41
2022/06/19 07:21:46;;;;;;;8.88;1.48;;;;;;;21.74;49.45;98746.03;5029132;28;20458;-40
2022/06/19 07:24:12;;;;;;;6.05;1.50;;;;;;;21.40;50.89;98755.47;5023020;28;20049;-40
2022/06/19 07:26:38;;;;;;;2.45;1.83;;;;;;;21.00;51.73;98760.94;5059994;28;20048;-40
2022/06/19 07:29:07;;;;;;;5.13;1.65;;;;;;;20.69;53.13;98766.38;5021483;28;20464;-40
2022/06/19 07:31:32;;;;;;;2.08;1.27;;;;;;;20.58;53.49;98758.59;5029139;28;20045;-40
2022/06/19 07:33:58;;;;;;;1.70;1.42;;;;;;;20.71;53.21;98753.03;5026626;28;20088;-41
2022/06/19 07:36:24;;;;;;;3.75;1.67;;;;;;;20.91;52.64;98740.66;5021300;28;20124;-40
2022/06/19 07:38:50;;;;;;;1.83;1.33;;;;;;;21.02;52.31;98725.47;5028137;28;20433;-40
2022/06/19 07:41:16;;;;;;;1.48;1.25;;;;;;;21.22;51.87;98721.00;5057202;28;20094;-40
2022/06/19 07:43:43;;;;;;;5.32;1.83;;;;;;;21.56;51.58;98734.56;5025622;28;20517;-41
2022/06/19 07:46:10;;;;;;;4.22;1.48;;;;;;;21.63;51.17;98727.69;5024181;28;20069;-40
2022/06/19 07:51:39;;;;;;;5.30;1.23;;;;;;;22.87;47.08;98711.19;5040389;28;20235;-41
2022/06/19 07:54:05;;;;;;;3.65;1.33;;;;;;;23.41;45.51;98702.06;5023473;28;20033;-43
2022/06/19 07:56:30;;;;;;;2.90;1.45;;;;;;;24.23;43.97;98702.28;5030685;28;20041;-44
2022/06/19 07:58:56;;;;;;;1.90;1.38;;;;;;;24.66;43.39;98717.09;5028012;28;20052;-45
2022/06/19 08:01:22;;;;;;;2.60;1.30;;;;;;;24.68;42.79;98725.75;5029466;28;20057;-44
2022/06/19 08:03:48;;;;;;;3.78;1.63;;;;;;;24.24;44.25;98733.16;5027880;28;20136;-44
2022/06/19 08:06:17;;;;;;;2.40;1.20;;;;;;;24.07;44.15;98731.44;5029993;28;20044;-46
2022/06/19 08:08:43;;;;;;;;;;;;;;;24.62;43.13;98726.41;5029652;28;20044;-44
2022/06/19 08:11:09;;;;;;;1.75;1.50;;;;;;;24.74;43.03;98714.47;5045207;28;19925;-43
2022/06/19 08:13:35;;;;;;;6.28;1.55;;;;;;;24.76;42.94;98690.34;5028962;28;20048;-45
2022/06/19 08:16:04;;;;;;;3.25;2.20;;;;;;;25.37;42.07;98711.09;5028320;28;20460;-46
2022/06/19 08:18:33;;;;;;;2.60;1.75;;;;;;;26.08;40.20;98697.69;5029540;28;20049;-45
2022/06/19 08:21:02;;;;;;;2.75;1.42;;;;;;;27.51;38.41;98685.41;5027720;28;20056;-46
2022/06/19 08:23:30;;;;;;;3.97;1.83;;;;;;;28.37;36.26;98693.44;5029971;28;20041;-44
2022/06/19 08:25:56;;;;;;;7.07;1.70;;;;;;;29.28;35.30;98673.06;5028403;28;20091;-43
2022/06/19 08:28:32;;;;;;;4.85;1.50;;;;;;;29.77;33.63;98678.31;5029209;28;20501;-47
2022/06/19 08:30:57;;;;;;;4.93;1.40;;;;;;;29.92;32.99;98668.28;5059248;28;20362;-45
2022/06/19 08:33:23;;;;;;;1.83;1.10;;;;;;;30.18;32.27;98660.31;5029244;28;20037;-44
2022/06/19 08:35:54;;;;;;;1.73;1.50;;;;;;;30.54;32.01;98641.22;4993693;28;20046;-43
2022/06/19 08:38:28;;;;;;;3.33;1.70;;;;;;;30.71;32.08;98650.53;5029432;28;20048;-45
2022/06/19 08:41:15;;;;;;;4.10;1.80;;;;;;;30.98;31.78;98659.38;5044514;28;20460;-45
2022/06/19 08:44:08;;;;;;;3.38;1.60;;;;;;;31.42;31.07;98634.53;5056561;28;20060;-48
2022/06/19 08:46:50;;;;;;;1.88;1.77;;;;;;;31.71;30.47;98645.84;5029119;28;20042;-44
2022/06/19 08:49:47;;;;;;;5.18;1.70;;;;;;;31.07;31.36;98651.97;5029680;28;20041;-45
2022/06/19 08:52:46;;;;;;;6.07;2.03;;;;;;;30.59;32.43;98629.88;5029768;28;20038;-43
2022/06/19 08:55:33;;;;;;;5.97;1.75;;;;;;;30.89;31.47;98641.00;5028528;28;20037;-44
2022/06/19 08:58:14;;;;;;;2.65;1.50;;;;;;;30.15;32.10;98625.03;5029884;28;20164;-49
2022/06/19 09:01:18;;;;;;;2.95;1.40;;;;;;;29.40;33.30;98636.69;5028804;28;20533;-46
2022/06/19 09:06:52;;;;;;;3.60;1.55;;;;;;;31.27;30.67;98620.53;5011791;28;20049;-44
2022/06/19 09:09:39;;;;;;;7.75;1.90;;;;;;;30.64;31.53;98619.34;5028837;28;20123;-46
2022/06/19 09:12:08;;;;;;;4.87;2.13;;;;;;;30.13;31.96;98630.63;5028367;28;20247;-45
2022/06/19 09:14:43;;;;;;;5.70;1.95;;;;;;;30.08;32.76;98614.31;5029566;28;20806;-45
2022/06/19 09:17:22;;;;;;;3.92;1.75;;;;;;;29.54;33.06;98605.44;5028194;28;20808;-45
2022/06/19 09:19:51;;;;;;;7.35;1.70;;;;;;;29.33;33.78;98612.56;5024604;28;20042;-45
2022/06/19 09:22:26;;;;;;;3.42;1.80;;;;;;;29.06;34.59;98603.50;5057243;28;20041;-45
2022/06/19 09:25:13;;;;;;;5.88;1.67;;;;;;;29.31;34.21;98593.16;5031355;28;20076;-43
2022/06/19 09:27:58;;;;;;;2.75;1.92;;;;;;;30.15;33.02;98604.41;5063307;28;20041;-45
2022/06/19 09:30:31;;;;;;;3.08;1.42;;;;;;;29.50;33.87;98590.78;5033236;28;20047;-44
2022/06/19 09:33:19;;;;;;;2.75;1.60;;;;;;;28.14;36.26;98596.59;5023024;28;20064;-47
2022/06/19 09:35:54;;;;;;;2.85;1.63;;;;;;;26.91;38.31;98577.78;5038384;28;20045;-45
2022/06/19 09:38:34;;;;;;;5.22;1.70;;;;;;;26.46;39.47;98576.03;5028602;28;20061;-43
2022/06/19 09:41:04;;;;;;;6.63;1.90;;;;;;;26.22;40.48;98546.94;5016602;28;20041;-47
2022/06/19 09:43:42;;;;;;;3.50;2.10;;;;;;;26.06;40.64;98555.88;5033745;28;20048;-43
2022/06/19 09:46:15;;;;;;;3.25;1.90;;;;;;;25.93;40.72;98550.28;5032741;28;20132;-45
2022/06/19 09:49:16;;;;;;;2.95;1.83;;;;;;;25.71;40.48;98546.59;5036457;28;20073;-45
2022/06/19 09:52:08;;;;;;;5.45;1.90;;;;;;;25.91;40.36;98533.66;5013851;28;20483;-42
2022/06/19 09:54:42;;;;;;;3.33;1.83;;;;;;;26.13;39.51;98521.31;5031241;28;20855;-46
2022/06/19 09:57:26;;;;;;;3.35;1.85;;;;;;;25.92;40.17;98540.63;5031996;28;20052;-46
2022/06/19 10:00:00;;;;;;;3.55;1.90;;;;;;;25.39;41.53;98517.47;5029682;28;20049;-45
2022/06/19 10:02:40;;;;;;;3.53;1.73;;;;;;;24.94;41.86;98542.13;5032334;28;20052;-43
2022/06/19 10:05:15;;;;;;;2.97;1.90;;;;;;;24.82;42.56;98504.41;5031502;28;20041;-45
2022/06/19 10:07:44;;;;;;;4.50;1.90;;;;;;;25.02;42.40;98501.41;5029259;28;20038;-44
2022/06/19 10:10:19;;;;;;;4.22;2.22;;;;;;;25.87;41.25;98494.22;5031086;28;20579;-45
2022/06/19 10:12:48;;;;;;;3.65;2.03;;;;;;;25.97;41.09;98498.31;5046771;28;20051;-50
2022/06/19 10:15:20;;;;;;;5.05;1.70;;;;;;;26.21;40.58;98486.63;5031404;28;20045;-46
2022/06/19 10:17:45;;;;;;;4.00;2.13;;;;;;;26.19;40.49;98471.81;5030440;28;20569;-46
2022/06/19 10:20:16;;;;;;;3.17;1.85;;;;;;;25.76;41.52;98486.66;5035147;28;20144;-44
2022/06/19 10:23:07;;;;;;;4.22;1.80;;;;;;;25.35;41.32;98488.75;5032120;28;20513;-46
2022/06/19 10:26:14;;;;;;;5.78;2.28;;;;;;;25.24;41.92;98489.97;5029040;28;20045;-47
2022/06/19 10:28:48;;;;;;;4.10;2.45;;;;;;;25.70;41.44;98470.41;5029777;28;20428;-46
2022/06/19 10:31:20;;;;;;;3.70;2.00;;;;;;;26.47;39.99;98452.41;5029677;28;20037;-46
2022/06/19 10:34:09;;;;;;;4.25;1.92;;;;;;;27.00;38.88;98449.66;5029229;28;20421;-48
2022/06/19 10:36:50;;;;;;;3.72;1.83;;;;;;;27.98;37.17;98423.94;5031067;28;20382;-46
2022/06/19 10:39:26;;;;;;;5.15;1.90;;;;;;;27.47;38.09;98419.78;5031065;28;20398;-46
2022/06/19 10:42:15;;;;;;;3.20;1.80;;;;;;;27.34;38.47;98425.78;5031179;28;20048;-44
2022/06/19 10:44:59;;;;;;;3.20;1.75;;;;;;;27.07;39.18;98422.00;5034335;28;20057;-46
2022/06/19 10:48:10;;;;;;;2.97;1.90;;;;;;;26.70;39.90;98425.63;5042177;28;20040;-45
2022/06/19 10:50:35;;;;;;;5.45;2.15;;;;;;;26.79;39.81;98427.22;5030154;28;20047;-47
2022/06/19 10:53:27;;;;;;;2.88;2.13;;;;;;;26.50;40.43;98412.06;5034829;28;20132;-45
2022/06/19 10:56:06;;;;;;;8.02;2.63;;;;;;;26.31;40.95;98415.28;5036824;28;20044;-48
2022/06/19 10:58:32;;;;;;;5.05;2.70;;;;;;;26.06;41.56;98408.53;5026283;28;20535;-43
2022/06/19 11:01:03;;;;;;;4.28;2.33;;;;;;;25.78;42.50;98413.59;5016632;28;20053;-48
2022/06/19 11:06:27;;;;;;;5.60;2.00;;;;;;;25.63;42.67;98439.34;5060090;28;20186;-48
2022/06/19 11:09:09;;;;;;;2.80;1.92;;;;;;;25.40;43.17;98428.66;5059055;28;20041;-47
2022/06/19 11:11:37;;;;;;;4.03;2.00;;;;;;;25.09;43.59;98427.88;5061235;28;20777;-51
2022/06/19 11:14:12;;;;;;;2.63;2.05;;;;;;;24.75;44.63;98463.59;5029551;28;20045;-50
2022/06/19 11:17:03;;;;;;;3.30;1.75;;;;;;;24.68;44.85;98443.16;5029693;28;20048;-48
2022/06/19 11:19:38;;;;;;;4.18;2.20;;;;;;;24.82;44.83;98443.25;5027741;28;20091;-46
2022/06/19 11:22:07;;;;;;;5.20;2.20;;;;;;;24.91;44.51;98451.25;5030128;28;20095;-46
2022/06/19 11:24:34;;;;;;;3.78;2.28;;;;;;;25.03;44.70;98433.88;5029914;28;20103;-45
2022/06/19 11:27:01;;;;;;;5.60;2.38;;;;;;;25.42;43.80;98418.69;5013514;28;20547;-45
2022/06/19 11:29:27;;;;;;;5.22;2.30;;;;;;;25.38;43.87;98424.53;5030861;28;20046;-47
2022/06/19 11:32:13;;;;;;;4.28;2.47;;;;;;;25.04;44.88;98433.72;5031430;28;20037;-46
2022/06/19 11:34:53;;;;;;;10.60;3.10;;;;;;;24.87;45.48;98450.72;5031084;28;20456;-44
2022/06/19 11:37:47;;;;;;;8.88;2.67;;;;;;;24.79;45.90;98429.50;5031498;28;20064;-47
2022/06/19 11:40:28;;;;;;;6.70;2.58;;;;;;;25.09;45.37;98449.97;5010134;28;20493;-46
2022/06/19 11:42:57;;;;;;;19.42;3.00;;;;;;;25.38;44.86;98445.84;4992652;28;20052;-45
2022/06/19 11:45:23;;;;;;;10.02;2.38;;;;;;;25.49;44.56;98454.22;5011324;28;20046;-48
2022/06/19 11:47:55;;;;;;;6.78;2.70;;;;;;;25.61;44.42;98438.69;5014027;28;20874;-45
2022/06/19 11:50:24;;;;;;;4.93;2.22;;;;;;;25.85;43.95;98445.66;5031115;28;20041;-47
2022/06/19 11:52:53;;;;;;;4.85;2.28;;;;;;;26.07;43.35;98464.25;5030386;28;20171;-46
2022/06/19 11:55:28;;;;;;;9.25;2.30;;;;;;;26.07;43.33;98455.44;5031012;28;20094;-46
2022/06/19 11:58:21;;;;;;;4.05;2.42;;;;;;;25.96;43.25;98453.22;5030082;28;20052;-46
2022/06/19 12:01:08;;;;;;;8.07;2.22;;;;;;;25.75;44.01;98447.75;5030632;28;20114;-49